Time;durP1;ratioP1;P1;durP2;ratioP2;P2;SDS_P1;SDS_P2;PMS_P1;PMS_P2;Temp;Humidity;BMP_temperature;BMP_pressure;BME280_temperature;BME280_humidity;BME280_pressure;Samples;Min_cycle;Max_cycle;Signal;HPM_P1;HPM_P2
2023/08/21 00:01:13;;;;;;;10.30;7.30;;;;;;;24.75;100.00;100719.02;106348;1259;66189;-89
2023/08/21 00:04:02;;;;;;;9.10;7.50;;;;;;;24.58;100.00;100724.02;106306;1254;63696;-84
2023/08/21 00:06:51;;;;;;;13.60;8.20;;;;;;;24.55;100.00;100722.30;106163;1254;62241;-84
2023/08/21 00:09:40;;;;;;;11.30;7.60;;;;;;;24.46;100.00;100718.66;106478;1253;77751;-89
2023/08/21 00:12:29;;;;;;;11.50;7.70;;;;;;;24.43;100.00;100715.07;106384;1254;72162;-89
2023/08/21 00:15:18;;;;;;;10.30;7.20;;;;;;;24.40;100.00;100724.27;106147;1254;74815;-84
2023/08/21 00:18:07;;;;;;;8.50;7.50;;;;;;;24.49;100.00;100719.61;106480;1255;63529;-83
2023/08/21 00:20:55;;;;;;;8.50;7.50;;;;;;;24.61;100.00;100722.98;106458;1253;62341;-89
2023/08/21 00:23:44;;;;;;;11.70;7.80;;;;;;;24.62;100.00;100722.27;106218;1253;73060;-89
2023/08/21 00:26:33;;;;;;;10.60;7.80;;;;;;;24.60;100.00;100718.73;106372;1253;68437;-89
2023/08/21 00:29:21;;;;;;;8.80;7.70;;;;;;;24.49;100.00;100717.94;106455;1253;76404;-89
2023/08/21 00:32:12;;;;;;;9.80;7.90;;;;;;;24.44;100.00;100717.19;106318;1253;65029;-82
2023/08/21 00:35:01;;;;;;;12.30;7.70;;;;;;;24.38;100.00;100715.69;106773;1253;61129;-82
2023/08/21 00:37:50;;;;;;;14.90;8.50;;;;;;;24.35;100.00;100720.80;106468;1253;77490;-83
2023/08/21 00:40:38;;;;;;;11.70;8.30;;;;;;;24.35;100.00;100714.84;106127;1253;67265;-85
2023/08/21 00:43:27;;;;;;;10.90;7.40;;;;;;;24.49;100.00;100714.88;106209;1254;75169;-85
2023/08/21 00:46:17;;;;;;;11.40;8.00;;;;;;;24.56;100.00;100714.17;106238;1258;62504;-82
2023/08/21 00:49:05;;;;;;;11.00;8.00;;;;;;;24.52;100.00;100711.77;106176;1255;61911;-87
2023/08/21 00:51:55;;;;;;;9.50;7.30;;;;;;;24.45;100.00;100712.42;106330;1253;77206;-87
2023/08/21 00:54:45;;;;;;;9.80;7.40;;;;;;;24.40;100.00;100713.58;106337;1253;67108;-82
2023/08/21 00:57:34;;;;;;;9.60;7.60;;;;;;;24.36;100.00;100709.91;106369;1253;75193;-87
2023/08/21 01:00:23;;;;;;;11.50;7.10;;;;;;;24.35;100.00;100706.69;106376;1254;61947;-83
2023/08/21 01:03:11;;;;;;;13.00;7.40;;;;;;;24.37;100.00;100712.08;106250;1256;60329;-87
2023/08/21 01:06:00;;;;;;;11.50;8.20;;;;;;;24.39;100.00;100706.45;106526;1253;77287;-83
2023/08/21 01:08:55;;;;;;;11.40;7.60;;;;;;;24.36;100.00;100705.98;106371;1254;72251;-87
2023/08/21 01:11:59;;;;;;;13.10;8.50;;;;;;;24.34;100.00;100708.52;106382;1258;75986;-83
2023/08/21 01:15:00;;;;;;;;;;;;;;;24.29;100.00;100711.66;106473;1256;62125;-88
2023/08/21 01:17:51;;;;;;;11.10;7.70;;;;;;;24.32;100.00;100711.09;106324;1255;61773;-83
2023/08/21 01:20:39;;;;;;;11.30;7.10;;;;;;;24.35;100.00;100705.58;106234;1256;73854;-88
2023/08/21 01:23:32;;;;;;;10.70;7.20;;;;;;;24.28;100.00;100707.17;106667;1256;67606;-83
2023/08/21 01:26:20;;;;;;;14.70;8.10;;;;;;;24.23;100.00;100709.39;106379;1257;76206;-83
2023/08/21 01:29:09;;;;;;;10.40;7.30;;;;;;;24.20;100.00;100710.61;106368;1253;65245;-88
2023/08/21 01:32:02;;;;;;;12.80;7.90;;;;;;;24.19;100.00;100707.23;106187;1253;60511;-88
2023/08/21 01:34:51;;;;;;;8.60;7.50;;;;;;;24.24;100.00;100703.58;106508;1253;72633;-83
2023/08/21 01:37:40;;;;;;;9.60;7.50;;;;;;;24.38;100.00;100693.41;106374;1256;70350;-88
2023/08/21 01:40:29;;;;;;;12.30;8.40;;;;;;;24.36;100.00;100688.11;106525;1254;73620;-88
2023/08/21 01:43:20;;;;;;;10.10;7.90;;;;;;;24.42;100.00;100689.67;106513;1252;64045;-87
2023/08/21 01:46:09;;;;;;;12.90;8.10;;;;;;;24.28;100.00;100694.01;106321;1253;60466;-88
2023/08/21 01:48:58;;;;;;;10.50;8.30;;;;;;;24.21;100.00;100703.92;106322;1254;76151;-84
2023/08/21 01:51:47;;;;;;;14.70;9.20;;;;;;;24.21;100.00;100706.79;106374;1253;69973;-88
2023/08/21 01:54:35;;;;;;;12.70;9.20;;;;;;;24.18;100.00;100703.13;106225;1256;74757;-88
2023/08/21 01:57:24;;;;;;;14.00;8.90;;;;;;;24.20;100.00;100704.29;106285;1253;63598;-88
2023/08/21 02:00:13;;;;;;;16.70;8.90;;;;;;;24.17;100.00;100702.88;106407;1258;60539;-88
2023/08/21 02:03:02;;;;;;;16.00;9.40;;;;;;;24.20;100.00;100706.45;106265;1251;77061;-83
2023/08/21 02:05:56;;;;;;;12.20;8.80;;;;;;;24.29;100.00;100710.86;106256;1257;68783;-88
2023/08/21 02:08:45;;;;;;;16.60;10.00;;;;;;;24.32;100.00;100713.16;106533;1257;72376;-87
2023/08/21 02:11:33;;;;;;;13.50;8.90;;;;;;;24.29;100.00;100715.41;106442;1251;62127;-88
2023/08/21 02:14:22;;;;;;;12.20;9.60;;;;;;;24.27;100.00;100714.33;106331;1256;61721;-83
2023/08/21 02:17:11;;;;;;;15.80;8.70;;;;;;;24.29;100.00;100717.41;106046;1256;74219;-88
2023/08/21 02:19:59;;;;;;;15.70;9.90;;;;;;;24.32;100.00;100717.25;106337;1253;68355;-84
2023/08/21 02:22:48;;;;;;;18.50;11.20;;;;;;;24.33;100.00;100718.85;106551;1254;73367;-84
2023/08/21 02:25:36;;;;;;;14.40;10.30;;;;;;;24.34;100.00;100724.61;106446;1256;62793;-83
2023/08/21 02:28:25;;;;;;;17.80;9.90;;;;;;;24.47;100.00;100727.61;106252;1256;61613;-84
2023/08/21 02:31:14;;;;;;;17.10;10.60;;;;;;;24.54;100.00;100724.50;106249;1251;77324;-83
2023/08/21 02:34:03;;;;;;;14.80;10.20;;;;;;;24.55;100.00;100721.09;106543;1257;69454;-88
2023/08/21 02:36:51;;;;;;;14.10;9.80;;;;;;;24.61;100.00;100720.09;106341;1257;75437;-87
2023/08/21 02:39:40;;;;;;;13.80;9.10;;;;;;;24.61;100.00;100722.10;106322;1256;64071;-88
2023/08/21 02:42:29;;;;;;;14.80;10.40;;;;;;;24.54;100.00;100726.01;106328;1257;60484;-84
2023/08/21 02:45:19;;;;;;;15.00;10.20;;;;;;;24.53;100.00;100728.71;106497;1256;74625;-83
2023/08/21 02:48:07;;;;;;;13.90;9.30;;;;;;;24.65;100.00;100729.44;106429;1257;61298;-89
2023/08/21 02:50:56;;;;;;;19.30;10.90;;;;;;;24.71;100.00;100733.45;106371;1265;75773;-84
2023/08/21 02:53:45;;;;;;;16.20;10.40;;;;;;;24.68;100.00;100734.13;106341;1256;61485;-84
2023/08/21 02:56:34;;;;;;;16.30;10.80;;;;;;;24.70;100.00;100738.23;106500;1254;62519;-88
2023/08/21 02:59:23;;;;;;;15.00;10.50;;;;;;;24.72;100.00;100735.00;106178;1254;74322;-84
2023/08/21 03:02:11;;;;;;;18.80;9.60;;;;;;;24.64;100.00;100730.70;106214;1257;72120;-84
2023/08/21 03:05:00;;;;;;;19.50;11.10;;;;;;;24.58;100.00;100733.84;106263;1257;62504;-87
2023/08/21 03:07:49;;;;;;;14.70;10.80;;;;;;;24.54;100.00;100742.14;106422;1256;60579;-84
2023/08/21 03:10:37;;;;;;;15.90;11.00;;;;;;;24.59;100.00;100743.12;106333;1257;63495;-84
2023/08/21 03:13:28;;;;;;;15.70;10.50;;;;;;;24.57;100.00;100743.15;106382;1256;72158;-88
2023/08/21 03:16:16;;;;;;;16.20;11.20;;;;;;;24.58;100.00;100740.86;106265;1259;72419;-88
2023/08/21 03:19:05;;;;;;;20.50;11.30;;;;;;;24.61;100.00;100741.89;106289;1257;76322;-88
2023/08/21 03:21:54;;;;;;;15.80;10.10;;;;;;;24.64;100.00;100736.13;106300;1254;60578;-88
2023/08/21 03:24:43;;;;;;;17.20;10.30;;;;;;;24.77;100.00;100738.05;106334;1253;60592;-84
2023/08/21 03:27:32;;;;;;;17.20;11.00;;;;;;;24.76;100.00;100738.44;106455;1256;76028;-88
2023/08/21 03:30:21;;;;;;;17.60;11.10;;;;;;;24.86;100.00;100738.55;106535;1257;72408;-88
2023/08/21 03:33:10;;;;;;;14.70;11.30;;;;;;;24.94;100.00;100739.83;106478;1255;71461;-84
2023/08/21 03:35:59;;;;;;;17.70;10.60;;;;;;;24.93;100.00;100743.63;106427;1260;62477;-84
2023/08/21 03:38:47;;;;;;;17.60;11.10;;;;;;;25.01;100.00;100743.14;106239;1254;60539;-88
2023/08/21 03:41:37;;;;;;;15.30;10.20;;;;;;;25.04;100.00;100734.65;106153;1258;77046;-88
2023/08/21 03:44:26;;;;;;;15.00;9.90;;;;;;;25.01;100.00;100736.13;106161;1258;60435;-88
2023/08/21 03:47:18;;;;;;;14.20;9.60;;;;;;;25.06;100.00;100737.98;106138;1257;74758;-87
2023/08/21 03:50:17;;;;;;;17.10;11.80;;;;;;;25.14;100.00;100735.25;106192;1254;65189;-84
2023/08/21 03:53:07;;;;;;;17.70;11.00;;;;;;;25.27;100.00;100734.48;106227;1254;60728;-84
2023/08/21 03:55:55;;;;;;;16.40;11.30;;;;;;;25.44;100.00;100739.08;106197;1265;66723;-88
2023/08/21 03:58:44;;;;;;;15.90;10.50;;;;;;;25.68;100.00;100739.23;106355;1257;62465;-88
2023/08/21 04:01:33;;;;;;;20.30;12.20;;;;;;;25.91;100.00;100746.15;106288;1254;66281;-88
2023/08/21 04:04:22;;;;;;;18.40;11.50;;;;;;;26.11;100.00;100750.46;106349;1254;60568;-84
2023/08/21 04:07:10;;;;;;;19.00;12.40;;;;;;;26.39;100.00;100752.37;106199;1254;60619;-87
2023/08/21 04:09:59;;;;;;;16.80;11.10;;;;;;;26.62;100.00;100748.05;106308;1257;65338;-88
2023/08/21 04:12:48;;;;;;;18.80;11.70;;;;;;;26.83;100.00;100749.73;106238;1252;62457;-88
2023/08/21 04:15:37;;;;;;;17.90;11.70;;;;;;;27.03;100.00;100746.02;106294;1255;66212;-87
2023/08/21 04:18:25;;;;;;;17.50;11.80;;;;;;;27.27;100.00;100744.59;106305;1260;60376;-88
2023/08/21 04:21:29;;;;;;;22.30;12.70;;;;;;;27.49;100.00;100742.23;106465;1257;60430;-87
2023/08/21 04:24:18;;;;;;;20.30;12.50;;;;;;;27.71;100.00;100745.38;106675;1256;67712;-84
2023/08/21 04:27:07;;;;;;;18.00;12.50;;;;;;;27.92;100.00;100740.50;106217;1257;61133;-87
2023/08/21 04:29:55;;;;;;;21.30;12.00;;;;;;;28.12;100.00;100743.42;106334;1254;66360;-84
2023/08/21 04:32:44;;;;;;;19.80;12.60;;;;;;;28.39;100.00;100743.90;106135;1254;60514;-85
2023/08/21 04:35:40;;;;;;;17.50;11.90;;;;;;;28.53;100.00;100743.18;106350;1253;60442;-86
2023/08/21 04:38:29;;;;;;;21.60;12.90;;;;;;;28.67;100.00;100740.27;106554;1257;67532;-89
2023/08/21 04:41:17;;;;;;;16.40;12.30;;;;;;;28.78;100.00;100746.48;106524;1257;60497;-87
2023/08/21 04:44:07;;;;;;;19.30;12.10;;;;;;;28.91;100.00;100750.54;106487;1252;62472;-87
2023/08/21 04:46:55;;;;;;;17.60;11.80;;;;;;;29.01;100.00;100753.78;106425;1259;60507;-87
2023/08/21 04:49:44;;;;;;;19.70;12.10;;;;;;;29.10;100.00;100751.89;106400;1259;60450;-88
2023/08/21 04:52:33;;;;;;;17.80;12.10;;;;;;;29.27;100.00;100750.96;106179;1253;66400;-86
2023/08/21 04:55:22;;;;;;;20.00;12.00;;;;;;;29.22;100.00;100750.95;106329;1254;60466;-88
2023/08/21 04:58:10;;;;;;;17.40;12.00;;;;;;;29.26;100.00;100748.15;106389;1254;65987;-86
2023/08/21 05:00:59;;;;;;;16.70;12.20;;;;;;;29.27;100.00;100745.89;106222;1259;60546;-89
2023/08/21 05:03:50;;;;;;;17.20;12.50;;;;;;;29.29;100.00;100743.24;106365;1253;60376;-86
2023/08/21 05:06:39;;;;;;;17.30;12.40;;;;;;;29.31;100.00;100743.89;106414;1254;65711;-89
2023/08/21 05:09:28;;;;;;;23.20;12.50;;;;;;;29.37;100.00;100746.15;106526;1256;61567;-89
2023/08/21 05:12:17;;;;;;;18.70;12.70;;;;;;;29.44;100.00;100744.63;106506;1257;66255;-89
2023/08/21 05:15:06;;;;;;;19.50;12.80;;;;;;;29.42;100.00;100746.61;106254;1254;60494;-89
2023/08/21 05:17:55;;;;;;;20.70;12.70;;;;;;;29.45;100.00;100749.60;106432;1254;59563;-88
2023/08/21 05:20:44;;;;;;;19.90;12.20;;;;;;;29.45;100.00;100752.34;106201;1255;65021;-88
2023/08/21 05:23:32;;;;;;;22.90;12.20;;;;;;;29.60;100.00;100754.92;106493;1254;60433;-88
2023/08/21 05:26:25;;;;;;;18.70;12.60;;;;;;;29.72;100.00;100756.06;106554;1251;66604;-85
2023/08/21 05:29:13;;;;;;;20.00;12.40;;;;;;;29.74;100.00;100755.50;106755;1252;60496;-84
2023/08/21 05:32:02;;;;;;;17.70;12.30;;;;;;;29.78;100.00;100758.95;106422;1254;60648;-86
2023/08/21 05:34:51;;;;;;;16.40;11.80;;;;;;;29.86;100.00;100760.40;106529;1255;66238;-87
2023/08/21 05:37:39;;;;;;;16.90;12.10;;;;;;;29.98;100.00;100760.21;106453;1254;60434;-87
2023/08/21 05:40:28;;;;;;;17.60;12.60;;;;;;;30.11;100.00;100760.44;106413;1254;66658;-88
2023/08/21 05:43:17;;;;;;;15.10;11.40;;;;;;;30.20;100.00;100764.93;106279;1254;60626;-89
2023/08/21 05:46:06;;;;;;;18.30;12.10;;;;;;;30.45;100.00;100761.32;106416;1254;60450;-89
2023/08/21 05:48:55;;;;;;;19.70;11.10;;;;;;;30.73;100.00;100761.61;106336;1254;64970;-88
2023/08/21 05:51:43;;;;;;;16.70;11.60;;;;;;;30.92;100.00;100759.46;106395;1257;62187;-88
2023/08/21 05:54:32;;;;;;;14.90;11.00;;;;;;;31.12;100.00;100765.45;106632;1254;66317;-88
2023/08/21 05:57:21;;;;;;;19.60;11.50;;;;;;;31.36;100.00;100763.44;106391;1253;60433;-89
2023/08/21 06:00:11;;;;;;;19.00;11.60;;;;;;;31.58;100.00;100763.45;106357;1259;60434;-89
2023/08/21 06:03:02;;;;;;;;;;;;;;;31.76;100.00;100768.13;106383;1257;66660;-88
2023/08/21 06:06:00;;;;;;;14.20;11.40;;;;;;;31.84;100.00;100769.03;106703;1254;61737;-91
2023/08/21 06:08:49;;;;;;;14.50;10.70;;;;;;;32.02;100.00;100767.50;106810;1254;65868;-89
2023/08/21 06:11:38;;;;;;;14.30;10.00;;;;;;;32.20;100.00;100761.75;106345;1257;60563;-89
2023/08/21 06:14:30;;;;;;;16.80;11.00;;;;;;;32.40;100.00;100758.27;106541;1251;60540;-89
2023/08/21 06:17:21;;;;;;;13.40;9.90;;;;;;;32.52;100.00;100756.70;106397;1254;65248;-91
2023/08/21 06:20:11;;;;;;;13.50;9.90;;;;;;;32.71;99.98;100759.63;106554;1255;60436;-89
2023/08/21 06:23:00;;;;;;;15.70;11.30;;;;;;;32.88;98.92;100763.19;106596;1254;64955;-89
2023/08/21 06:25:48;;;;;;;16.60;11.00;;;;;;;33.05;97.78;100765.64;106536;1257;60562;-90
2023/08/21 06:28:38;;;;;;;16.70;11.40;;;;;;;33.23;95.76;100765.21;106722;1251;60504;-89
2023/08/21 06:31:27;;;;;;;14.80;11.00;;;;;;;33.31;92.77;100764.68;106489;1252;66418;-88
2023/08/21 06:34:16;;;;;;;13.00;10.60;;;;;;;33.46;91.59;100765.58;106444;1254;60550;-89
2023/08/21 06:37:05;;;;;;;13.70;10.60;;;;;;;33.56;92.36;100764.54;106347;1254;63786;-90
2023/08/21 06:39:56;;;;;;;16.50;11.90;;;;;;;33.71;92.00;100769.31;106439;1257;60562;-89
2023/08/21 06:42:45;;;;;;;13.10;10.70;;;;;;;33.81;90.80;100767.67;106511;1254;60497;-89
2023/08/21 06:45:34;;;;;;;15.50;10.80;;;;;;;33.96;90.39;100761.41;106463;1254;66950;-88
2023/08/21 06:48:25;;;;;;;13.60;10.70;;;;;;;34.11;89.29;100763.51;106648;1251;60429;-88
2023/08/21 06:51:13;;;;;;;14.20;10.10;;;;;;;34.36;89.12;100765.05;106458;1253;62546;-90
2023/08/21 06:54:05;;;;;;;18.40;10.40;;;;;;;34.52;88.37;100763.76;106597;1256;60538;-90
2023/08/21 06:56:53;;;;;;;17.50;10.80;;;;;;;34.64;85.63;100762.70;106451;1253;59976;-89
2023/08/21 06:59:42;;;;;;;21.80;12.50;;;;;;;34.92;82.88;100762.48;106535;1253;67604;-88
2023/08/21 07:02:31;;;;;;;15.90;10.40;;;;;;;35.08;80.25;100764.90;106312;1260;60997;-88
2023/08/21 07:05:20;;;;;;;14.30;11.50;;;;;;;35.22;78.70;100768.48;106415;1256;65941;-88
2023/08/21 07:08:08;;;;;;;14.20;10.60;;;;;;;35.40;76.09;100771.63;106458;1256;60475;-89
2023/08/21 07:10:57;;;;;;;12.80;9.70;;;;;;;35.54;77.16;100770.15;106496;1251;60661;-91
2023/08/21 07:13:46;;;;;;;12.70;10.90;;;;;;;35.59;76.91;100773.60;106471;1254;68950;-87
2023/08/21 07:16:35;;;;;;;15.00;10.00;;;;;;;35.66;74.26;100770.61;106443;1254;60440;-89
2023/08/21 07:19:23;;;;;;;14.10;10.30;;;;;;;35.74;72.45;100770.32;106431;1257;64729;-89
2023/08/21 07:22:12;;;;;;;12.70;10.10;;;;;;;35.75;72.21;100768.19;106366;1257;61688;-88
2023/08/21 07:25:03;;;;;;;14.50;10.00;;;;;;;35.74;74.10;100764.61;106733;1256;61211;-89
2023/08/21 07:27:55;;;;;;;12.70;9.40;;;;;;;35.81;77.35;100766.38;106629;1251;67593;-90
2023/08/21 07:30:44;;;;;;;12.10;10.20;;;;;;;36.00;75.28;100763.14;106718;1251;61280;-90
2023/08/21 07:33:32;;;;;;;12.40;9.70;;;;;;;36.00;73.84;100767.59;106605;1251;66053;-90
2023/08/21 07:36:24;;;;;;;14.40;9.60;;;;;;;35.99;72.87;100768.93;106547;1251;61302;-90
2023/08/21 07:39:13;;;;;;;;;;;;;;;36.08;69.98;100767.79;106675;1251;61179;-88
2023/08/21 07:42:01;;;;;;;10.90;8.80;;;;;;;36.22;67.99;100770.42;106431;1251;67377;-87
2023/08/21 07:44:50;;;;;;;14.40;9.30;;;;;;;36.26;67.68;100767.15;106603;1251;62138;-89
2023/08/21 07:47:39;;;;;;;10.90;9.00;;;;;;;36.25;65.94;100763.20;106544;1254;65721;-87
2023/08/21 07:50:27;;;;;;;10.40;9.20;;;;;;;36.48;65.36;100765.30;106561;1256;61377;-88
2023/08/21 07:53:16;;;;;;;14.00;9.10;;;;;;;36.68;63.08;100768.05;106552;1251;61274;-89
2023/08/21 07:56:05;;;;;;;12.40;9.10;;;;;;;36.74;62.96;100766.67;106835;1251;65795;-87
2023/08/21 07:58:54;;;;;;;13.50;9.40;;;;;;;36.64;64.11;100767.37;106634;1257;62339;-87
2023/08/21 08:01:43;;;;;;;12.90;8.80;;;;;;;36.60;62.85;100769.05;106863;1251;65828;-86
2023/08/21 08:04:31;;;;;;;9.80;8.20;;;;;;;36.48;64.78;100767.41;106700;1251;61237;-87
2023/08/21 08:07:20;;;;;;;10.40;9.00;;;;;;;36.57;65.18;100763.52;106712;1254;61300;-92
2023/08/21 08:10:09;;;;;;;9.50;8.00;;;;;;;36.64;61.17;100759.00;106700;1257;68081;-87
2023/08/21 08:12:58;;;;;;;11.50;8.80;;;;;;;36.55;60.99;100762.73;106768;1251;63353;-86
2023/08/21 08:15:46;;;;;;;12.60;8.30;;;;;;;36.67;60.62;100760.11;106824;1251;67611;-88
2023/08/21 08:18:35;;;;;;;11.60;8.10;;;;;;;36.88;60.95;100759.89;106853;1254;61885;-89
2023/08/21 08:21:24;;;;;;;11.60;8.50;;;;;;;36.95;56.75;100760.08;106596;1251;61254;-91
2023/08/21 08:24:12;;;;;;;10.70;8.50;;;;;;;37.02;55.07;100761.09;106307;1256;68754;-91
2023/08/21 08:27:01;;;;;;;9.60;8.60;;;;;;;36.86;55.78;100764.18;106705;1251;61244;-88
2023/08/21 08:29:50;;;;;;;9.40;8.30;;;;;;;36.68;54.88;100762.79;106692;1254;65484;-88
2023/08/21 08:32:40;;;;;;;12.00;8.30;;;;;;;36.50;54.09;100757.70;106474;1257;61272;-87
2023/08/21 08:35:32;;;;;;;11.40;8.30;;;;;;;36.58;53.31;100758.44;106437;1251;61320;-88
2023/08/21 08:38:21;;;;;;;11.70;8.60;;;;;;;36.71;53.42;100752.69;106863;1254;67080;-91
2023/08/21 08:41:12;;;;;;;8.30;7.30;;;;;;;36.71;52.41;100749.02;106338;1251;62112;-88
2023/08/21 08:44:01;;;;;;;9.40;7.70;;;;;;;36.58;51.62;100746.73;106381;1251;66201;-88
2023/08/21 08:46:49;;;;;;;11.80;7.90;;;;;;;36.50;52.88;100740.27;106341;1260;61344;-88
2023/08/21 08:49:38;;;;;;;10.20;7.60;;;;;;;36.47;54.10;100738.91;106538;1251;61282;-90
2023/08/21 08:52:27;;;;;;;9.60;7.80;;;;;;;36.52;52.36;100738.27;106707;1251;68092;-89
2023/08/21 08:55:16;;;;;;;10.70;8.00;;;;;;;36.66;53.29;100731.85;106906;1254;61336;-87
2023/08/21 08:58:05;;;;;;;10.40;6.90;;;;;;;36.94;50.66;100729.84;106449;1251;62461;-89
2023/08/21 09:00:53;;;;;;;10.60;7.40;;;;;;;37.20;48.94;100731.96;106335;1253;61359;-91
2023/08/21 09:03:42;;;;;;;10.50;7.70;;;;;;;37.39;48.99;100732.65;106527;1254;61240;-91
2023/08/21 09:06:32;;;;;;;8.90;7.80;;;;;;;37.51;48.63;100726.08;106281;1254;68794;-87
2023/08/21 09:09:21;;;;;;;8.60;7.70;;;;;;;37.46;49.37;100725.98;106760;1256;61246;-88
2023/08/21 09:12:13;;;;;;;9.00;7.90;;;;;;;37.52;49.10;100720.08;106602;1257;65792;-87
2023/08/21 09:15:06;;;;;;;8.50;7.10;;;;;;;37.70;48.67;100717.49;106745;1251;61306;-85
2023/08/21 09:17:55;;;;;;;9.70;7.10;;;;;;;37.77;49.79;100713.63;106534;1251;61664;-86
2023/08/21 09:20:43;;;;;;;8.60;7.40;;;;;;;37.73;49.32;100717.90;106520;1256;67881;-86
2023/08/21 09:23:34;;;;;;;7.90;7.10;;;;;;;37.93;49.43;100717.45;106775;1256;62547;-87
2023/08/21 09:26:23;;;;;;;8.80;7.80;;;;;;;38.02;47.91;100719.89;106788;1251;64149;-89
2023/08/21 09:29:14;;;;;;;9.90;8.20;;;;;;;38.10;46.97;100714.33;106513;1254;61259;-89
2023/08/21 09:32:03;;;;;;;8.00;7.20;;;;;;;38.15;47.06;100714.73;106566;1251;60513;-89
2023/08/21 09:34:52;;;;;;;13.50;7.60;;;;;;;38.13;46.63;100708.50;106714;1251;66704;-92
2023/08/21 09:37:40;;;;;;;9.30;7.00;;;;;;;38.25;45.58;100702.83;106637;1251;61393;-87
2023/08/21 09:40:29;;;;;;;8.80;7.20;;;;;;;38.47;45.08;100703.46;106477;1251;65557;-89
2023/08/21 09:43:18;;;;;;;12.60;9.50;;;;;;;38.43;44.82;100706.96;106492;1251;61247;-90
2023/08/21 09:46:07;;;;;;;9.80;8.10;;;;;;;38.37;44.99;100704.24;106482;1257;59315;-88
2023/08/21 09:48:56;;;;;;;11.10;8.10;;;;;;;38.22;44.24;100704.81;106693;1251;66070;-88
2023/08/21 09:51:48;;;;;;;8.10;7.00;;;;;;;37.97;45.03;100704.17;106588;1251;61728;-89
2023/08/21 09:54:38;;;;;;;10.20;7.00;;;;;;;37.87;46.39;100700.62;106433;1254;65961;-89
2023/08/21 09:57:26;;;;;;;8.20;7.40;;;;;;;38.08;46.28;100700.68;106430;1256;61356;-88
2023/08/21 10:00:15;;;;;;;9.60;6.60;;;;;;;38.26;44.33;100695.84;106689;1251;61288;-90
2023/08/21 10:03:09;;;;;;;8.50;6.50;;;;;;;38.26;41.72;100697.98;106457;1251;66596;-91
2023/08/21 10:05:59;;;;;;;7.50;6.50;;;;;;;38.35;41.20;100698.30;106287;1253;61959;-92
2023/08/21 10:08:49;;;;;;;7.20;6.10;;;;;;;38.48;40.01;100702.23;106233;1251;65638;-90
2023/08/21 10:11:37;;;;;;;12.70;7.40;;;;;;;38.46;39.67;100694.63;106337;1253;61800;-87
2023/08/21 10:14:26;;;;;;;9.40;6.80;;;;;;;38.61;39.84;100695.11;106447;1251;59323;-90
2023/08/21 10:17:15;;;;;;;9.70;6.40;;;;;;;38.84;40.80;100699.98;106347;1256;65754;-87
2023/08/21 10:20:07;;;;;;;7.90;5.80;;;;;;;39.06;38.46;100702.04;106340;1254;62378;-86
2023/08/21 10:23:01;;;;;;;9.10;6.00;;;;;;;39.09;38.84;100702.02;106344;1256;65965;-88
2023/08/21 10:26:00;;;;;;;6.70;5.50;;;;;;;39.09;37.74;100702.29;106333;1253;61152;-88
2023/08/21 10:28:50;;;;;;;8.00;5.70;;;;;;;39.11;36.33;100698.77;106520;1253;61170;-91
2023/08/21 10:31:40;;;;;;;7.70;5.40;;;;;;;39.02;34.66;100695.12;106424;1254;67076;-92
2023/08/21 10:34:34;;;;;;;8.60;6.00;;;;;;;39.03;34.61;100697.20;106563;1253;61246;-91
2023/08/21 10:37:22;;;;;;;6.30;4.80;;;;;;;39.03;34.40;100696.45;106449;1254;65936;-88
2023/08/21 10:40:12;;;;;;;8.60;5.40;;;;;;;39.13;34.19;100694.02;106351;1251;61298;-91
2023/08/21 10:43:01;;;;;;;5.80;5.20;;;;;;;39.10;35.38;100692.29;106305;1256;61675;-89
2023/08/21 10:45:56;;;;;;;8.10;5.50;;;;;;;39.09;35.20;100690.24;106402;1251;66591;-87
2023/08/21 10:48:44;;;;;;;8.80;5.40;;;;;;;39.18;34.67;100691.19;106354;1251;61220;-91
2023/08/21 10:51:33;;;;;;;8.80;5.60;;;;;;;39.17;33.80;100689.85;106393;1252;63792;-90
2023/08/21 10:54:22;;;;;;;7.10;5.20;;;;;;;39.14;33.80;100686.86;106367;1251;61240;-89
2023/08/21 10:57:10;;;;;;;6.40;5.30;;;;;;;39.27;33.91;100684.38;106378;1256;61346;-90
2023/08/21 11:00:00;;;;;;;8.60;5.90;;;;;;;39.45;34.05;100687.21;106356;1256;67979;-86
2023/08/21 11:02:50;;;;;;;6.00;5.00;;;;;;;39.48;33.87;100685.94;106134;1251;61655;-86
2023/08/21 11:05:38;;;;;;;5.70;4.90;;;;;;;39.59;33.75;100680.48;106405;1258;65078;-88
2023/08/21 11:08:27;;;;;;;6.50;5.40;;;;;;;39.81;33.77;100678.27;106383;1253;61290;-86
2023/08/21 11:11:18;;;;;;;13.00;6.30;;;;;;;39.88;33.72;100674.13;106461;1256;61352;-91
2023/08/21 11:14:07;;;;;;;6.90;5.50;;;;;;;39.93;33.10;100674.27;106406;1257;68231;-88
2023/08/21 11:16:56;;;;;;;7.00;5.60;;;;;;;39.95;33.72;100670.70;106248;1251;61426;-86
2023/08/21 11:19:45;;;;;;;8.00;5.70;;;;;;;39.67;33.37;100674.79;106452;1254;66455;-86
2023/08/21 11:22:33;;;;;;;7.10;5.30;;;;;;;39.63;33.45;100672.22;106247;1251;61355;-87
2023/08/21 11:25:22;;;;;;;7.80;5.60;;;;;;;39.76;33.72;100665.84;106272;1256;61138;-88
2023/08/21 11:28:11;;;;;;;7.20;5.50;;;;;;;39.78;33.78;100659.39;106438;1253;68025;-87
2023/08/21 11:31:00;;;;;;;8.80;5.90;;;;;;;39.64;33.91;100662.77;106493;1251;62401;-90
2023/08/21 11:33:51;;;;;;;7.50;5.80;;;;;;;39.64;33.72;100664.73;106562;1251;62496;-87
2023/08/21 11:36:40;;;;;;;7.40;5.80;;;;;;;39.78;34.09;100665.73;106381;1256;61369;-90
2023/08/21 11:39:47;;;;;;;7.30;6.30;;;;;;;39.98;33.83;100662.34;106558;1256;61217;-87
2023/08/21 11:42:36;;;;;;;7.50;5.90;;;;;;;40.05;33.58;100660.55;106477;1252;65040;-87
2023/08/21 11:45:25;;;;;;;8.30;6.00;;;;;;;40.26;33.15;100659.73;106513;1253;62597;-86
2023/08/21 11:48:14;;;;;;;9.60;6.20;;;;;;;40.57;33.05;100660.91;106334;1253;65863;-88
2023/08/21 11:51:03;;;;;;;8.50;5.70;;;;;;;40.64;32.29;100660.98;106325;1251;61159;-92
2023/08/21 11:53:52;;;;;;;7.10;6.30;;;;;;;40.56;31.49;100653.15;106377;1251;61304;-91
2023/08/21 11:56:48;;;;;;;8.40;5.70;;;;;;;40.56;31.57;100649.90;106273;1253;67543;-90
2023/08/21 11:59:37;;;;;;;25.40;17.90;;;;;;;40.56;32.12;100648.59;106425;1257;61614;-89
2023/08/21 12:02:29;;;;;;;36.20;22.90;;;;;;;40.79;31.31;100647.75;106648;1253;65180;-88
2023/08/21 12:05:18;;;;;;;7.20;6.20;;;;;;;40.96;31.20;100645.56;106504;1253;61445;-92
2023/08/21 12:08:06;;;;;;;10.10;7.00;;;;;;;41.15;31.18;100646.77;106391;1251;61283;-92
2023/08/21 12:10:55;;;;;;;9.00;6.70;;;;;;;41.14;31.80;100643.11;106470;1252;67142;-87
2023/08/21 12:13:44;;;;;;;10.40;6.40;;;;;;;41.18;31.82;100647.92;106397;1253;62074;-87
2023/08/21 12:16:33;;;;;;;7.60;6.40;;;;;;;41.23;31.64;100654.86;106581;1254;65560;-91
2023/08/21 12:19:23;;;;;;;7.40;6.40;;;;;;;40.95;31.55;100656.77;106473;1254;61270;-91
2023/08/21 12:22:12;;;;;;;9.40;6.40;;;;;;;40.56;32.56;100654.29;106532;1253;61785;-91
2023/08/21 12:25:00;;;;;;;22.80;7.00;;;;;;;40.51;32.65;100653.33;106547;1256;68633;-88
2023/08/21 12:27:49;;;;;;;7.30;6.20;;;;;;;40.76;32.29;100656.87;106441;1251;61898;-88
2023/08/21 12:30:55;;;;;;;11.00;6.00;;;;;;;40.85;32.08;100658.23;106558;1257;63800;-87
2023/08/21 12:33:44;;;;;;;11.00;6.90;;;;;;;40.66;32.18;100654.32;106696;1251;61349;-90
2023/08/21 12:36:35;;;;;;;10.70;5.90;;;;;;;40.49;33.00;100658.17;106635;1251;59676;-88
2023/08/21 12:39:23;;;;;;;7.30;6.50;;;;;;;40.34;32.51;100664.77;106714;1254;66676;-90
2023/08/21 12:42:12;;;;;;;10.30;6.00;;;;;;;40.16;32.68;100657.80;106617;1256;61664;-87
2023/08/21 12:45:01;;;;;;;6.60;6.00;;;;;;;40.16;32.95;100648.56;106461;1251;63721;-90